Time;durP1;ratioP1;P1;durP2;ratioP2;P2;SDS_P1;SDS_P2;PMS_P1;PMS_P2;Temp;Humidity;BMP_temperature;BMP_pressure;BME280_temperature;BME280_humidity;BME280_pressure;Samples;Min_cycle;Max_cycle;Signal;HPM_P1;HPM_P2
2022/11/13 00:00:52;;;;;;;10.53;7.30;;;10.50;99.90;;;10.50;68.32;96288.88;5005982;28;21036;-57
2022/11/13 00:03:19;;;;;;;7.50;6.80;;;10.50;99.90;;;10.49;68.37;96295.13;4999265;28;20462;-57
2022/11/13 00:05:48;;;;;;;12.07;8.60;;;10.50;99.90;;;10.45;68.61;96288.38;5002259;28;20486;-58
2022/11/13 00:08:15;;;;;;;12.43;8.00;;;10.50;99.90;;;10.43;68.55;96298.16;4994246;28;20466;-57
2022/11/13 00:10:43;;;;;;;9.53;7.23;;;10.40;99.90;;;10.40;68.50;96300.03;4997247;28;20482;-57
2022/11/13 00:13:10;;;;;;;8.00;6.20;;;10.40;99.90;;;10.38;69.06;96301.94;5006358;28;20958;-57
2022/11/13 00:15:37;;;;;;;11.67;8.47;;;10.40;99.90;;;10.35;68.81;96294.25;5000571;28;20500;-56
2022/11/13 00:18:05;;;;;;;13.30;5.90;;;10.30;99.90;;;10.34;69.14;96297.81;5002324;28;20489;-57
2022/11/13 00:20:32;;;;;;;10.50;7.07;;;10.30;99.90;;;10.33;69.05;96296.16;5004765;28;20481;-56
2022/11/13 00:23:02;;;;;;;7.53;6.60;;;10.30;99.90;;;10.34;69.14;96305.69;5006340;28;20789;-56
2022/11/13 00:25:29;;;;;;;7.80;6.97;;;10.30;99.90;;;10.34;69.11;96300.44;5005830;28;20472;-57
2022/11/13 00:27:56;;;;;;;10.60;7.30;;;10.30;99.90;;;10.34;69.73;96296.97;5001430;28;20459;-56
2022/11/13 00:30:23;;;;;;;8.50;6.87;;;10.30;99.90;;;10.34;69.24;96296.97;4999375;28;20556;-58
2022/11/13 00:32:51;;;;;;;11.30;7.30;;;10.30;99.90;;;10.34;69.44;96296.97;5000109;28;20454;-56
2022/11/13 00:35:18;;;;;;;9.30;6.97;;;10.30;99.90;;;10.35;69.44;96299.50;5000951;28;20863;-57
2022/11/13 00:37:45;;;;;;;10.07;7.13;;;10.30;99.90;;;10.35;69.52;96294.25;5000286;28;20523;-57
2022/11/13 00:40:14;;;;;;;8.47;6.60;;;10.40;99.90;;;10.36;69.42;96306.47;5003088;28;20474;-57
2022/11/13 00:42:41;;;;;;;10.10;7.43;;;10.30;99.90;;;10.35;69.59;96299.50;4999217;28;20456;-57
2022/11/13 00:45:09;;;;;;;7.80;6.57;;;10.40;99.90;;;10.35;69.67;96298.66;4999494;28;20887;-56
2022/11/13 00:47:36;;;;;;;6.90;5.93;;;10.30;99.90;;;10.33;69.38;96297.91;5002423;28;20970;-58
2022/11/13 00:50:05;;;;;;;11.77;8.30;;;10.30;99.90;;;10.32;69.71;96290.97;4999009;28;20569;-58
2022/11/13 00:52:32;;;;;;;9.13;7.23;;;10.30;99.90;;;10.30;69.64;96291.06;5002296;28;20461;-57
2022/11/13 00:54:59;;;;;;;7.77;6.93;;;10.30;99.90;;;10.31;69.95;96295.34;4998651;28;21010;-57
2022/11/13 00:57:28;;;;;;;7.33;6.63;;;10.30;99.90;;;10.30;70.11;96291.06;5001909;28;20493;-59
2022/11/13 00:59:55;;;;;;;7.27;6.57;;;10.30;99.90;;;10.31;69.83;96291.88;4996364;28;20478;-57
2022/11/13 01:02:22;;;;;;;11.80;7.40;;;10.30;99.90;;;10.31;69.97;96292.72;5000312;28;20479;-57
2022/11/13 01:04:49;;;;;;;10.50;6.50;;;10.30;99.90;;;10.33;69.84;96290.88;4997967;28;20477;-56
2022/11/13 01:07:16;;;;;;;8.60;7.00;;;10.30;99.90;;;10.33;70.13;96304.03;5001841;28;20465;-56
2022/11/13 01:09:44;;;;;;;9.33;6.20;;;10.30;99.90;;;10.34;70.28;96302.25;4999012;28;20474;-57
2022/11/13 01:12:11;;;;;;;10.80;6.80;;;10.30;99.90;;;10.32;70.27;96309.38;5006907;28;20967;-58
2022/11/13 01:14:40;;;;;;;7.53;6.77;;;10.30;99.90;;;10.38;69.90;96306.34;4997798;28;20488;-57
2022/11/13 01:17:07;;;;;;;8.33;6.40;;;10.40;99.90;;;10.38;69.98;96307.19;4997695;28;20457;-56
2022/11/13 01:19:34;;;;;;;8.17;7.10;;;10.40;99.90;;;10.38;70.16;96293.22;5003556;28;20480;-57
2022/11/13 01:22:01;;;;;;;9.50;7.30;;;10.40;99.90;;;10.38;70.09;96301.94;5002142;28;20458;-56
2022/11/13 01:24:29;;;;;;;8.90;7.40;;;10.40;99.90;;;10.38;69.96;96299.28;4994655;28;20490;-56
2022/11/13 01:26:56;;;;;;;7.13;6.00;;;10.40;99.90;;;10.38;70.02;96294.03;5004566;28;20511;-59
2022/11/13 01:29:23;;;;;;;7.80;7.00;;;10.40;99.90;;;10.38;69.98;96296.66;4999568;28;20519;-57
2022/11/13 01:31:52;;;;;;;7.53;6.20;;;10.40;99.90;;;10.39;70.37;96293.09;5004707;28;20460;-57
2022/11/13 01:34:19;;;;;;;15.30;6.57;;;10.40;99.90;;;10.40;70.06;96284.25;5000465;28;20902;-57
2022/11/13 01:36:47;;;;;;;6.53;5.93;;;10.40;99.90;;;10.40;70.13;96279.00;4998519;28;20458;-56
2022/11/13 01:39:14;;;;;;;6.37;5.77;;;10.40;99.90;;;10.42;70.02;96288.56;5005512;28;20499;-58
2022/11/13 01:41:41;;;;;;;6.70;5.90;;;10.40;99.90;;;10.41;69.79;96279.84;5001106;28;20515;-57
2022/11/13 01:44:11;;;;;;;6.00;5.40;;;10.40;99.90;;;10.41;69.74;96287.75;5002465;28;20911;-56
2022/11/13 01:46:39;;;;;;;6.73;5.10;;;10.40;99.90;;;10.41;69.65;96282.47;5001479;28;20511;-58
2022/11/13 01:49:26;;;;;;;5.73;5.20;;;10.40;99.90;;;10.43;69.70;96290.25;5000963;28;20478;-57
2022/11/13 01:51:55;;;;;;;6.30;5.17;;;10.40;99.90;;;10.42;69.60;96289.41;4998952;28;20469;-59
2022/11/13 01:54:25;;;;;;;6.17;5.57;;;10.40;99.90;;;10.43;69.53;96285.00;4998845;28;20520;-57
2022/11/13 01:56:53;;;;;;;9.63;5.80;;;10.40;99.90;;;10.41;69.69;96282.47;5003132;28;20453;-57
2022/11/13 01:59:23;;;;;;;5.90;5.10;;;10.40;99.90;;;10.40;69.55;96276.34;5003163;28;20493;-57
2022/11/13 02:01:50;;;;;;;6.20;5.60;;;10.40;99.90;;;10.43;69.54;96274.47;5001608;28;20469;-57
2022/11/13 02:04:19;;;;;;;6.70;5.80;;;10.40;99.90;;;10.45;69.29;96275.22;5003430;28;20543;-57
2022/11/13 02:06:48;;;;;;;6.13;5.53;;;10.40;99.90;;;10.46;69.21;96277.75;4999609;28;20461;-58
2022/11/13 02:09:15;;;;;;;6.23;5.57;;;10.40;99.90;;;10.46;69.35;96264.59;5001454;28;20481;-58
2022/11/13 02:11:42;;;;;;;6.93;5.10;;;10.50;99.90;;;10.46;69.20;96276.91;5001660;28;20462;-58
2022/11/13 02:14:10;;;;;;;6.77;5.50;;;10.50;99.90;;;10.44;69.64;96269.13;4998230;28;20486;-56
2022/11/13 02:16:37;;;;;;;8.07;6.00;;;10.40;99.90;;;10.44;69.27;96276.16;5003931;28;20461;-57
2022/11/13 02:19:06;;;;;;;7.67;6.03;;;10.50;99.90;;;10.44;69.29;96271.75;5006419;28;20551;-57
2022/11/13 02:21:39;;;;;;;5.83;5.10;;;10.40;99.90;;;10.44;69.40;96269.13;5002931;28;20465;-57
2022/11/13 02:24:24;;;;;;;5.50;5.00;;;10.40;99.90;;;10.44;69.29;96273.50;5007165;28;20477;-56
2022/11/13 02:26:52;;;;;;;6.30;5.07;;;10.40;99.90;;;10.43;69.32;96279.75;5003418;28;20457;-56
2022/11/13 02:29:19;;;;;;;6.73;5.67;;;10.40;99.90;;;10.42;69.16;96276.25;5007057;28;20592;-57
2022/11/13 02:31:46;;;;;;;9.50;5.10;;;10.40;99.90;;;10.42;69.46;96278.06;4994528;28;20826;-56
2022/11/13 02:34:13;;;;;;;6.30;5.17;;;10.40;99.90;;;10.42;69.22;96272.78;5002797;28;20534;-58
2022/11/13 02:36:41;;;;;;;11.03;5.80;;;10.40;99.90;;;10.43;69.35;96269.22;4997767;28;20450;-58
2022/11/13 02:39:12;;;;;;;8.10;6.00;;;10.40;99.90;;;10.40;69.13;96265.84;5002773;28;20880;-57
2022/11/13 02:41:41;;;;;;;6.30;5.50;;;10.40;99.90;;;10.43;69.31;96266.59;5008453;28;20504;-58
2022/11/13 02:44:08;;;;;;;6.23;5.30;;;10.40;99.90;;;10.43;69.42;96274.47;5000884;28;20877;-57
2022/11/13 02:46:35;;;;;;;6.80;5.80;;;10.40;99.90;;;10.42;69.30;96267.53;5003072;28;20829;-57
2022/11/13 02:49:03;;;;;;;6.40;5.83;;;10.40;99.90;;;10.42;69.44;96262.25;5006055;28;20478;-57
2022/11/13 02:51:30;;;;;;;6.33;5.83;;;10.40;99.90;;;10.43;69.49;96263.97;4998511;28;20458;-56
2022/11/13 02:53:57;;;;;;;9.20;6.17;;;10.40;99.90;;;10.44;69.48;96268.25;5004401;28;20466;-57
2022/11/13 02:56:24;;;;;;;9.80;7.30;;;10.40;99.90;;;10.46;69.48;96261.13;5006163;28;20461;-58
2022/11/13 02:58:53;;;;;;;9.63;6.50;;;10.40;99.90;;;10.48;69.63;96273.19;5001488;28;20579;-57
2022/11/13 03:01:20;;;;;;;5.33;4.83;;;10.50;99.90;;;10.48;69.55;96265.31;4998888;28;20458;-57
2022/11/13 03:03:48;;;;;;;6.03;5.40;;;10.50;99.90;;;10.51;69.55;96267.72;5003403;28;20945;-57
2022/11/13 03:06:15;;;;;;;7.37;6.70;;;10.50;99.90;;;10.52;69.57;96279.13;4999887;28;20453;-57
2022/11/13 03:08:42;;;;;;;8.30;6.87;;;10.50;99.90;;;10.51;69.63;96269.53;5007827;28;20527;-58
2022/11/13 03:11:10;;;;;;;6.87;5.83;;;10.50;99.90;;;10.50;69.41;96279.22;5004004;28;20446;-57
2022/11/13 03:13:37;;;;;;;7.63;5.87;;;10.50;99.90;;;10.50;69.63;96283.63;5007775;28;20492;-56
2022/11/13 03:16:10;;;;;;;7.53;6.00;;;10.50;99.90;;;10.48;69.64;96272.38;5007405;28;20507;-57
2022/11/13 03:18:37;;;;;;;7.17;6.47;;;10.50;99.90;;;10.48;69.58;96277.63;5010284;28;20905;-57
2022/11/13 03:21:09;;;;;;;9.17;6.43;;;10.50;99.90;;;10.49;69.86;96277.53;5007715;28;20891;-56
2022/11/13 03:23:36;;;;;;;8.33;6.40;;;10.50;99.90;;;10.51;69.86;96283.53;5007139;28;20449;-57
2022/11/13 03:26:06;;;;;;;11.70;6.50;;;10.50;99.90;;;10.54;69.80;96285.09;5006383;28;20884;-57
2022/11/13 03:28:33;;;;;;;12.53;6.50;;;10.50;99.90;;;10.53;70.03;96286.91;5005942;28;20457;-56
2022/11/13 03:31:00;;;;;;;12.67;6.50;;;10.50;99.90;;;10.55;69.89;96284.13;5006732;28;20512;-57
2022/11/13 03:33:29;;;;;;;7.70;6.90;;;10.50;99.90;;;10.56;69.47;96286.66;4999276;28;20462;-57
2022/11/13 03:35:56;;;;;;;7.97;6.17;;;10.50;99.90;;;10.57;70.03;96283.09;4999426;28;20489;-57
2022/11/13 03:38:24;;;;;;;9.50;6.77;;;10.50;99.90;;;10.61;69.52;96294.25;4999336;28;20490;-57
2022/11/13 03:40:51;;;;;;;13.70;7.63;;;10.60;99.90;;;10.62;69.85;96290.69;4998988;28;20478;-56
2022/11/13 03:43:19;;;;;;;12.37;6.83;;;10.60;99.90;;;10.64;70.01;96283.50;5001800;28;20453;-56
2022/11/13 03:45:46;;;;;;;9.20;7.53;;;10.60;99.90;;;10.67;69.79;96293.81;5000260;28;20520;-57
2022/11/13 03:48:14;;;;;;;7.23;6.50;;;10.60;99.90;;;10.68;69.58;96286.78;4999856;28;20469;-58
2022/11/13 03:50:43;;;;;;;9.33;8.03;;;10.70;99.90;;;10.69;69.72;96289.31;5000557;28;21089;-56
2022/11/13 03:53:10;;;;;;;11.20;7.47;;;10.70;99.90;;;10.71;69.80;96297.94;5001927;28;20461;-57
2022/11/13 03:55:37;;;;;;;15.13;7.60;;;10.70;99.90;;;10.74;69.94;96289.00;5003653;28;20531;-57
2022/11/13 03:58:04;;;;;;;9.50;6.37;;;10.70;99.90;;;10.74;69.87;96287.22;5002428;28;20971;-56
2022/11/13 04:00:32;;;;;;;8.30;7.10;;;10.70;99.90;;;10.74;69.83;96291.63;4998742;28;20558;-56
2022/11/13 04:02:59;;;;;;;7.50;6.73;;;10.70;99.90;;;10.76;69.82;96289.72;4994355;28;20971;-58
2022/11/13 04:05:26;;;;;;;13.20;7.80;;;10.70;99.90;;;10.79;69.77;96296.59;5000548;28;20895;-57
2022/11/13 04:07:55;;;;;;;8.70;7.27;;;10.80;99.90;;;10.81;69.81;96297.31;5001880;28;20894;-58
2022/11/13 04:10:22;;;;;;;10.17;7.47;;;10.80;99.90;;;10.82;69.60;96283.22;4998364;28;20479;-56
2022/11/13 04:12:49;;;;;;;7.97;6.97;;;10.80;99.90;;;10.84;69.68;96295.28;5001443;28;20458;-59
2022/11/13 04:15:17;;;;;;;11.23;8.37;;;10.80;99.90;;;10.85;69.75;96283.00;5000812;28;20548;-57
2022/11/13 04:17:44;;;;;;;9.57;7.70;;;10.80;99.90;;;10.86;69.64;96287.28;4999822;28;20615;-57
2022/11/13 04:20:12;;;;;;;8.13;7.30;;;10.80;99.90;;;10.87;69.72;96279.28;5002242;28;20500;-56
2022/11/13 04:22:39;;;;;;;9.63;7.67;;;10.80;99.90;;;10.87;69.84;96278.47;5006255;28;20450;-57
2022/11/13 04:25:09;;;;;;;8.67;7.77;;;10.90;99.90;;;10.88;69.96;96278.34;5006208;28;20544;-57
2022/11/13 04:27:36;;;;;;;7.80;6.90;;;10.80;99.90;;;10.88;69.78;96277.53;5006078;28;20785;-56
2022/11/13 04:30:04;;;;;;;7.83;7.03;;;10.80;99.90;;;10.89;69.41;96277.41;5006110;28;20478;-56
2022/11/13 04:32:31;;;;;;;7.30;6.20;;;10.90;99.90;;;10.90;69.48;96278.25;5006043;28;20548;-57
2022/11/13 04:34:59;;;;;;;7.93;7.13;;;10.90;99.90;;;10.92;69.69;96284.25;5002245;28;21085;-56
2022/11/13 04:37:26;;;;;;;8.57;7.13;;;10.90;99.90;;;10.91;69.65;96291.31;5006272;28;20975;-56
2022/11/13 04:39:53;;;;;;;9.07;7.23;;;10.90;99.90;;;10.91;69.57;96283.41;5007466;28;20489;-56
2022/11/13 04:45:08;;;;;;;10.80;7.33;;;10.90;99.90;;;10.92;69.92;96286.88;5002330;28;20457;-57
2022/11/13 04:47:35;;;;;;;8.50;7.47;;;10.90;99.90;;;10.93;69.85;96288.56;5005949;28;20456;-57
2022/11/13 04:50:03;;;;;;;16.70;9.20;;;10.90;99.90;;;10.94;69.57;96285.81;5005172;28;20519;-56
2022/11/13 04:52:30;;;;;;;13.80;8.90;;;10.90;99.90;;;10.97;69.43;96284.78;4996871;28;20472;-57
2022/11/13 04:54:57;;;;;;;11.20;7.70;;;10.90;99.90;;;10.97;69.90;96290.03;4999462;28;20481;-57
2022/11/13 04:57:26;;;;;;;13.40;8.97;;;11.00;99.90;;;10.99;69.88;96296.03;4999228;28;20473;-58
2022/11/13 04:59:53;;;;;;;10.70;8.77;;;10.90;99.90;;;10.98;69.78;96286.44;4999725;28;21010;-57
2022/11/13 05:02:20;;;;;;;12.23;8.37;;;11.00;99.90;;;10.99;69.72;96289.94;5000284;28;20519;-59
2022/11/13 05:04:48;;;;;;;16.43;8.97;;;11.00;99.90;;;10.99;69.89;96298.66;5000306;28;20485;-57
2022/11/13 05:07:15;;;;;;;14.00;9.73;;;11.00;99.90;;;11.01;69.88;96288.03;4998933;28;20462;-56
2022/11/13 05:09:42;;;;;;;18.83;10.73;;;11.00;99.90;;;11.02;69.98;96295.00;4999028;28;20884;-56
2022/11/13 05:12:09;;;;;;;11.80;9.90;;;11.00;99.90;;;11.02;69.69;96282.66;4999747;28;20996;-57
2022/11/13 05:14:38;;;;;;;16.30;11.17;;;11.00;99.90;;;11.03;69.62;96294.88;5004751;28;20488;-56
2022/11/13 05:17:07;;;;;;;20.87;11.37;;;11.00;99.90;;;11.04;69.90;96293.09;4999336;28;20872;-57
2022/11/13 05:19:34;;;;;;;19.90;11.57;;;11.00;99.90;;;11.03;69.76;96294.88;5001811;28;21005;-56
2022/11/13 05:22:01;;;;;;;16.07;12.10;;;11.00;99.90;;;11.04;69.84;96301.81;5001327;28;20497;-59
2022/11/13 05:24:29;;;;;;;18.00;12.13;;;11.00;99.90;;;11.04;69.87;96295.72;5001823;28;20914;-57
2022/11/13 05:26:56;;;;;;;19.40;13.57;;;11.00;99.90;;;11.03;69.83;96300.16;5005890;28;20484;-57
2022/11/13 05:29:23;;;;;;;19.17;12.60;;;11.00;99.90;;;11.04;69.88;96295.72;5001362;28;20543;-57
2022/11/13 05:31:52;;;;;;;17.97;13.47;;;11.00;99.90;;;11.03;69.75;96294.88;4995352;28;20760;-58
2022/11/13 05:34:19;;;;;;;17.13;12.97;;;11.00;99.90;;;11.03;69.77;96294.03;5001131;28;20484;-55
2022/11/13 05:36:46;;;;;;;20.83;15.23;;;11.00;99.90;;;11.02;69.60;96300.25;4999808;28;20862;-58
2022/11/13 05:39:14;;;;;;;19.73;14.07;;;11.00;99.90;;;11.02;69.82;96297.63;5000430;28;20562;-57
2022/11/13 05:41:41;;;;;;;24.13;15.30;;;11.00;99.90;;;11.03;69.85;96310.69;5003499;28;20466;-57
2022/11/13 05:44:08;;;;;;;22.67;14.20;;;11.00;99.90;;;11.03;69.94;96305.41;4999604;28;20889;-57
2022/11/13 05:46:36;;;;;;;30.67;17.87;;;11.00;99.90;;;11.03;69.79;96308.03;4997218;28;20470;-55
2022/11/13 05:49:04;;;;;;;52.17;28.90;;;11.00;99.90;;;11.04;69.66;96311.50;5005943;28;21125;-56
2022/11/13 05:51:33;;;;;;;36.33;21.77;;;11.00;99.90;;;11.06;69.71;96315.72;5003789;28;20457;-57
2022/11/13 05:54:01;;;;;;;94.33;48.90;;;11.00;99.90;;;11.06;69.60;96318.38;5004910;28;20572;-57
2022/11/13 05:56:29;;;;;;;26.50;15.83;;;11.00;99.90;;;11.05;69.81;96305.31;4999698;28;20477;-57
2022/11/13 05:58:56;;;;;;;24.90;16.53;;;11.00;99.90;;;11.06;69.47;96307.84;5001590;28;20497;-58
2022/11/13 06:01:25;;;;;;;23.17;16.70;;;11.00;99.90;;;11.07;69.67;96306.03;4998839;28;20461;-58
2022/11/13 06:03:53;;;;;;;20.00;15.27;;;11.10;99.90;;;11.07;69.42;96317.41;5004250;28;20468;-56
2022/11/13 06:06:22;;;;;;;25.00;15.30;;;11.00;99.90;;;11.10;69.48;96321.63;4999687;28;20465;-56
2022/11/13 06:08:50;;;;;;;22.13;16.43;;;11.10;99.90;;;11.13;69.39;96321.41;4997607;28;20468;-57
2022/11/13 06:11:19;;;;;;;25.23;16.03;;;11.10;99.90;;;11.13;69.51;96316.97;4996249;28;20459;-57
2022/11/13 06:13:46;;;;;;;28.83;14.53;;;11.10;99.90;;;11.16;69.21;96320.34;5003368;28;20557;-57
2022/11/13 06:16:15;;;;;;;27.37;15.33;;;11.10;99.90;;;11.18;69.21;96323.72;5004632;28;20449;-57
2022/11/13 06:18:43;;;;;;;20.40;14.03;;;11.10;99.90;;;11.20;68.80;96329.69;5008499;28;21018;-56
2022/11/13 06:21:13;;;;;;;21.47;15.10;;;11.10;99.90;;;11.20;68.66;96333.19;5008659;28;20441;-58
2022/11/13 06:23:42;;;;;;;21.10;15.37;;;11.20;99.90;;;11.21;69.06;96324.34;5004772;28;20450;-58
2022/11/13 06:26:11;;;;;;;22.37;14.47;;;11.20;99.90;;;11.22;68.74;96314.66;5007925;28;20465;-58
2022/11/13 06:28:38;;;;;;;27.00;15.60;;;11.20;99.90;;;11.23;68.84;96324.22;5003082;28;20951;-58
2022/11/13 06:31:07;;;;;;;20.40;15.10;;;11.20;99.90;;;11.25;68.96;96331.06;5007409;28;20450;-55
2022/11/13 06:33:34;;;;;;;23.27;14.83;;;11.20;99.90;;;11.24;68.84;96326.75;5001486;28;20520;-59
2022/11/13 06:36:02;;;;;;;24.53;15.17;;;11.20;99.90;;;11.26;68.55;96319.59;4999170;28;20496;-56
2022/11/13 06:38:32;;;;;;;24.30;16.20;;;11.20;99.90;;;11.27;68.57;96328.34;5008233;28;20467;-56
2022/11/13 06:41:01;;;;;;;65.57;35.37;;;11.20;99.90;;;11.30;68.69;96333.38;5003586;28;21033;-56
2022/11/13 06:43:28;;;;;;;28.53;17.83;;;11.30;99.90;;;11.34;68.75;96334.88;5009385;28;20458;-57
2022/11/13 06:45:55;;;;;;;26.53;15.20;;;11.30;99.90;;;11.38;68.76;96325.78;5008308;28;20473;-56
2022/11/13 06:48:23;;;;;;;21.43;15.07;;;11.30;99.90;;;11.42;68.59;96327.25;5004460;28;20572;-56
2022/11/13 06:50:50;;;;;;;28.30;15.37;;;11.40;99.90;;;11.46;68.24;96327.88;5000831;28;20485;-55
2022/11/13 06:53:18;;;;;;;21.90;13.83;;;11.40;99.90;;;11.47;68.27;96330.41;5007233;28;20449;-55
2022/11/13 06:55:45;;;;;;;21.03;14.90;;;11.40;99.90;;;11.46;68.27;96328.72;4996408;28;20478;-56
2022/11/13 06:58:14;;;;;;;20.87;13.90;;;11.40;99.90;;;11.46;68.27;96325.22;5002868;28;20579;-58
2022/11/13 07:00:41;;;;;;;24.77;15.80;;;11.40;99.90;;;11.48;68.08;96320.72;5001601;28;20509;-55
2022/11/13 07:03:15;;;;;;;17.07;12.17;;;11.40;99.90;;;11.53;68.24;96325.66;5000145;28;20838;-56
2022/11/13 07:05:43;;;;;;;27.17;15.80;;;11.50;99.90;;;11.54;68.08;96327.31;4992654;28;20572;-56
2022/11/13 07:08:10;;;;;;;23.33;15.07;;;11.50;99.90;;;11.56;67.99;96326.28;4997592;28;20503;-55
2022/11/13 07:10:37;;;;;;;24.77;15.10;;;11.50;99.90;;;11.60;67.87;96332.16;5002109;28;20489;-60
2022/11/13 07:13:05;;;;;;;31.30;15.50;;;11.60;99.90;;;11.60;67.60;96332.16;4997510;28;20458;-56
2022/11/13 07:15:35;;;;;;;22.40;15.57;;;11.50;99.90;;;11.61;67.67;96333.84;4999122;28;20486;-57
2022/11/13 07:18:02;;;;;;;24.67;16.50;;;11.60;99.90;;;11.62;67.44;96333.75;5005784;28;20602;-57
2022/11/13 07:20:30;;;;;;;20.87;14.50;;;11.60;99.90;;;11.64;67.54;96336.25;5002187;28;20493;-57
2022/11/13 07:22:57;;;;;;;25.30;15.73;;;11.60;99.90;;;11.66;67.35;96339.63;5003286;28;20473;-60
2022/11/13 07:25:24;;;;;;;25.60;15.60;;;11.60;99.90;;;11.68;67.27;96334.25;5002063;28;20905;-59
2022/11/13 07:27:52;;;;;;;27.03;15.83;;;11.60;99.90;;;11.68;67.28;96331.59;5002180;28;20573;-61
2022/11/13 07:30:19;;;;;;;40.20;17.07;;;11.60;99.90;;;11.66;67.09;96329.06;4995342;28;20485;-57
2022/11/13 07:32:48;;;;;;;35.27;17.87;;;11.60;99.90;;;11.70;67.38;96333.19;4999522;28;20888;-57
2022/11/13 07:35:16;;;;;;;25.37;16.80;;;11.70;99.90;;;11.74;67.29;96337.28;5005868;28;20481;-57
2022/11/13 07:37:43;;;;;;;24.50;16.37;;;11.70;99.90;;;11.77;67.24;96337.06;4993612;28;20485;-56
2022/11/13 07:40:11;;;;;;;27.00;16.13;;;11.70;99.90;;;11.77;66.72;96341.47;5002118;28;20871;-58
2022/11/13 07:42:38;;;;;;;25.90;15.27;;;11.70;99.90;;;11.75;67.11;96343.41;5006336;28;20539;-55
2022/11/13 07:45:07;;;;;;;27.30;16.37;;;11.70;99.90;;;11.73;67.40;96340.03;5002487;28;21063;-55
2022/11/13 07:47:34;;;;;;;28.87;17.67;;;11.70;99.90;;;11.73;66.99;96345.31;5002574;28;20537;-56
2022/11/13 07:50:03;;;;;;;25.73;18.30;;;11.70;99.90;;;11.73;66.52;96346.16;5003393;28;20477;-56
2022/11/13 07:52:30;;;;;;;28.17;18.03;;;11.70;99.90;;;11.74;66.91;96337.28;5006323;28;20461;-58
2022/11/13 07:54:58;;;;;;;23.20;15.30;;;11.70;99.90;;;11.76;66.58;96339.81;5003582;28;20489;-57
2022/11/13 07:57:26;;;;;;;28.60;17.10;;;11.70;99.90;;;11.77;66.71;96334.44;5002357;28;20942;-58
2022/11/13 07:59:53;;;;;;;26.03;16.27;;;11.70;99.90;;;11.80;66.36;96334.22;5003232;28;20493;-57
2022/11/13 08:02:20;;;;;;;22.67;15.90;;;11.70;99.90;;;11.80;66.06;96331.56;5005619;28;20461;-57
2022/11/13 08:04:47;;;;;;;22.07;13.83;;;11.80;99.90;;;11.81;66.26;96341.16;5005232;28;20477;-57
2022/11/13 08:07:16;;;;;;;25.63;16.37;;;11.80;99.90;;;11.81;66.17;96338.50;5001448;28;20461;-57
2022/11/13 08:09:43;;;;;;;26.40;16.30;;;11.80;99.90;;;11.81;65.83;96327.97;5000711;28;20469;-56
2022/11/13 08:12:11;;;;;;;26.97;17.20;;;11.80;99.90;;;11.83;65.63;96328.72;4999333;28;20520;-57
2022/11/13 08:14:38;;;;;;;24.30;15.37;;;11.80;99.90;;;11.86;65.79;96332.06;5005107;28;20480;-57
2022/11/13 08:17:05;;;;;;;28.53;18.17;;;11.80;99.90;;;11.87;65.60;96325.84;5004078;28;21016;-56
2022/11/13 08:19:33;;;;;;;24.20;16.30;;;11.80;99.90;;;11.89;65.42;96327.41;5003378;28;20587;-58
2022/11/13 08:22:00;;;;;;;23.50;16.07;;;11.90;99.90;;;11.93;65.41;96336.81;5004239;28;20508;-57
2022/11/13 08:24:29;;;;;;;27.50;16.10;;;11.90;99.90;;;11.97;65.00;96340.91;5006354;28;20480;-57
2022/11/13 08:26:56;;;;;;;21.50;15.60;;;11.90;99.90;;;11.97;64.67;96327.72;5001183;28;20469;-58
2022/11/13 08:29:24;;;;;;;22.30;17.00;;;11.90;99.70;;;11.99;65.01;96322.34;5006194;28;20568;-57
2022/11/13 08:31:51;;;;;;;24.00;16.40;;;12.00;99.90;;;12.02;64.44;96332.66;5005790;28;20970;-57
2022/11/13 08:34:19;;;;;;;25.83;15.80;;;12.00;99.80;;;12.04;64.54;96335.19;5005081;28;20470;-58
2022/11/13 08:36:48;;;;;;;25.73;16.47;;;12.00;99.50;;;12.06;64.25;96333.28;5005721;28;20524;-58
2022/11/13 08:39:15;;;;;;;24.77;16.33;;;12.00;99.50;;;12.10;64.45;96338.22;5005742;28;20547;-57
2022/11/13 08:41:44;;;;;;;18.40;12.93;;;12.10;99.60;;;12.13;64.09;96345.91;4998488;28;21193;-57
2022/11/13 08:44:13;;;;;;;28.07;16.90;;;12.10;99.40;;;12.14;63.94;96354.66;5001930;28;20481;-56
2022/11/13 08:46:40;;;;;;;17.23;13.70;;;12.10;99.30;;;12.12;64.00;96353.94;4999920;28;20467;-57
2022/11/13 08:49:07;;;;;;;25.13;16.90;;;12.10;99.30;;;12.14;63.95;96346.75;5002492;28;20474;-58
2022/11/13 08:51:35;;;;;;;24.17;15.30;;;12.10;99.20;;;12.11;63.97;96353.06;4998747;28;20492;-56
2022/11/13 08:54:02;;;;;;;23.70;15.40;;;12.10;99.20;;;12.13;63.97;96350.31;5000918;28;20493;-55
2022/11/13 08:56:29;;;;;;;18.43;14.03;;;12.10;99.30;;;12.12;64.01;96349.50;4999145;28;20459;-56
2022/11/13 08:58:58;;;;;;;18.30;14.40;;;12.10;99.20;;;12.13;63.95;96358.25;5002109;28;20476;-58
2022/11/13 09:01:25;;;;;;;19.30;15.17;;;12.10;99.20;;;12.13;64.20;96366.16;5001709;28;20497;-56
2022/11/13 09:03:52;;;;;;;21.53;15.07;;;12.10;99.10;;;12.13;64.10;96358.25;4999654;28;20460;-56
2022/11/13 09:06:20;;;;;;;20.93;16.43;;;12.10;99.20;;;12.15;64.02;96353.72;5000951;28;20537;-57
2022/11/13 09:08:47;;;;;;;23.33;16.67;;;12.10;99.20;;;12.17;63.81;96363.19;5005127;28;20781;-58
2022/11/13 09:11:15;;;;;;;23.33;15.67;;;12.10;99.10;;;12.19;63.92;96356.00;5000838;28;20485;-57
2022/11/13 09:13:42;;;;;;;29.37;18.07;;;12.20;99.10;;;12.21;63.78;96355.91;5003386;28;20449;-58
2022/11/13 09:16:11;;;;;;;43.07;28.17;;;12.20;99.00;;;12.29;63.69;96352.69;5000846;28;21432;-55
2022/11/13 09:18:38;;;;;;;31.73;16.70;;;12.20;99.00;;;12.35;63.28;96363.63;4998191;28;20457;-58
2022/11/13 09:21:06;;;;;;;24.30;17.40;;;12.30;98.90;;;12.37;63.35;96356.44;5002152;28;20891;-58
2022/11/13 09:23:34;;;;;;;21.57;15.53;;;12.30;98.90;;;12.46;63.35;96354.09;4998840;28;20461;-58
2022/11/13 09:26:02;;;;;;;24.57;17.10;;;12.40;98.80;;;12.55;62.95;96358.66;5002094;28;20545;-55
2022/11/13 09:28:29;;;;;;;35.33;18.17;;;12.50;98.50;;;12.67;62.99;96351.59;4999579;28;20549;-57
2022/11/13 09:30:57;;;;;;;22.30;16.77;;;12.60;98.60;;;12.83;62.65;96351.31;5001931;28;20885;-57
2022/11/13 09:33:25;;;;;;;26.20;16.50;;;12.70;98.40;;;13.01;61.32;96355.19;5000531;28;20453;-57
2022/11/13 09:35:53;;;;;;;24.17;18.43;;;12.80;97.60;;;13.13;61.25;96348.09;4998513;28;20855;-57
2022/11/13 09:38:20;;;;;;;23.20;16.27;;;13.00;97.80;;;13.28;61.37;96346.91;5003659;28;20886;-57
2022/11/13 09:40:50;;;;;;;20.40;15.33;;;13.10;97.60;;;13.49;60.97;96345.34;5005432;28;20497;-57
2022/11/13 09:43:27;;;;;;;21.23;16.80;;;13.30;97.40;;;13.67;60.57;96337.78;5006015;28;20460;-57
2022/11/13 09:45:58;;;;;;;23.77;16.90;;;13.50;97.20;;;13.86;60.30;96330.03;5005314;28;20556;-58
2022/11/13 09:48:32;;;;;;;27.60;16.93;;;13.70;97.00;;;14.05;59.82;96323.25;5005328;28;20603;-57
2022/11/13 09:51:00;;;;;;;21.97;15.70;;;13.90;96.60;;;14.15;59.41;96325.00;5005258;28;20473;-56
2022/11/13 09:53:29;;;;;;;19.80;14.73;;;14.00;96.10;;;14.27;59.11;96323.16;5004774;28;20491;-56
2022/11/13 09:56:16;;;;;;;21.17;15.27;;;14.10;95.90;;;14.38;58.54;96324.09;5005028;28;20470;-58
2022/11/13 09:58:50;;;;;;;17.80;14.57;;;14.20;95.60;;;14.37;58.11;96327.72;5001764;28;20766;-57
2022/11/13 10:01:43;;;;;;;27.37;20.00;;;14.20;95.10;;;14.28;58.51;96319.56;5005176;28;20481;-57
2022/11/13 10:04:12;;;;;;;31.53;21.60;;;14.20;95.20;;;14.26;58.68;96329.41;5004475;28;20820;-57
2022/11/13 10:06:49;;;;;;;22.93;16.30;;;14.20;95.20;;;14.29;58.67;96320.41;5006026;28;20465;-56
2022/11/13 10:09:24;;;;;;;20.23;16.03;;;14.20;95.20;;;14.34;58.62;96316.41;5007703;28;20896;-57
2022/11/13 10:11:54;;;;;;;21.57;16.17;;;14.20;95.60;;;14.37;58.16;96317.13;5007242;28;20446;-57
2022/11/13 10:14:25;;;;;;;17.43;14.73;;;14.30;94.90;;;14.39;58.23;96321.34;5007333;28;20477;-56
2022/11/13 10:16:54;;;;;;;19.57;15.17;;;14.30;94.80;;;14.41;58.62;96313.25;5005087;28;20987;-57
2022/11/13 10:19:27;;;;;;;22.93;13.93;;;14.30;94.90;;;14.44;58.19;96307.72;5005608;28;21046;-57